Time;durP1;ratioP1;P1;durP2;ratioP2;P2;SDS_P1;SDS_P2;PMS_P1;PMS_P2;Temp;Humidity;BMP_temperature;BMP_pressure;BME280_temperature;BME280_humidity;BME280_pressure;Samples;Min_cycle;Max_cycle;Signal;HPM_P1;HPM_P2
2021/08/05 00:01:36;;;;;;;;;;;17.30;95.90;;;17.22;86.03;100100.16;4989798;28;19925;-87
2021/08/05 00:04:04;;;;;;;;;;;17.30;96.00;;;17.20;85.86;100101.22;4989788;28;19961;-88
2021/08/05 00:06:32;;;;;;;;;;;17.30;96.00;;;17.19;85.99;100104.19;4989020;28;19929;-87
2021/08/05 00:09:00;;;;;;;;;;;17.30;96.00;;;17.19;86.02;100105.06;4989514;28;20105;-87
2021/08/05 00:11:27;;;;;;;;;;;17.30;96.20;;;17.18;85.90;100092.38;4989730;28;19969;-87
2021/08/05 00:13:54;;;;;;;;;;;17.30;96.20;;;17.16;86.17;100097.28;4989686;28;19965;-88
2021/08/05 00:16:22;;;;;;;;;;;17.30;96.20;;;17.15;86.25;100092.88;4988633;28;19925;-87
2021/08/05 00:18:50;;;;;;;;;;;17.30;96.30;;;17.14;86.25;100096.69;4989599;28;19960;-87
2021/08/05 00:21:17;;;;;;;;;;;17.30;96.40;;;17.13;86.39;100088.66;4972071;28;20365;-87
2021/08/05 00:23:44;;;;;;;;;;;17.30;96.40;;;17.12;86.11;100096.09;4989644;28;20397;-87
2021/08/05 00:26:13;;;;;;;;;;;17.20;96.30;;;17.11;86.39;100094.41;4988879;28;19957;-87
2021/08/05 00:28:41;;;;;;;;;;;17.30;96.40;;;17.12;86.25;100093.34;4989688;28;19925;-88
2021/08/05 00:31:08;;;;;;;;;;;17.20;96.40;;;17.12;86.19;100087.84;4989588;28;20016;-87
2021/08/05 00:33:35;;;;;;;;;;;17.20;96.50;;;17.11;86.48;100093.56;4972089;28;19953;-88
2021/08/05 00:36:03;;;;;;;;;;;17.30;96.60;;;17.11;86.47;100091.66;4971292;28;19945;-87
2021/08/05 00:38:31;;;;;;;;;;;17.20;96.60;;;17.11;86.78;100090.81;4972575;28;19929;-87
2021/08/05 00:40:58;;;;;;;;;;;17.20;96.80;;;17.08;86.93;100088.56;4975488;28;19930;-87
2021/08/05 00:43:27;;;;;;;;;;;17.30;96.80;;;17.10;86.71;100081.75;4975165;28;19976;-87
2021/08/05 00:45:54;;;;;;;;;;;17.20;96.80;;;17.07;86.87;100079.47;4992249;28;19976;-87
2021/08/05 00:48:21;;;;;;;;;;;17.30;96.90;;;17.08;87.12;100086.66;4992627;28;19930;-87
2021/08/05 00:50:49;;;;;;;;;;;17.20;96.80;;;17.08;87.02;100070.16;4992778;28;20354;-87
2021/08/05 00:53:17;;;;;;;;;;;17.20;96.90;;;17.09;87.17;100068.22;4975269;28;20680;-88
2021/08/05 00:55:45;;;;;;;;;;;17.20;97.10;;;17.05;87.37;100062.38;4992695;28;19925;-87
2021/08/05 00:58:12;;;;;;;;;;;17.20;97.10;;;17.08;87.54;100061.06;4974675;28;20349;-88
2021/08/05 01:00:45;;;;;;;;;;;17.20;97.20;;;17.06;87.61;100058.56;4975152;28;19929;-87
2021/08/05 01:03:17;;;;;;;;;;;17.30;97.30;;;17.07;87.48;100062.13;4975088;28;20378;-88
2021/08/05 01:05:48;;;;;;;;;;;17.20;97.20;;;17.06;87.61;100060.44;4974927;28;19957;-87
2021/08/05 01:08:19;;;;;;;;;;;17.30;97.30;;;17.06;87.68;100061.31;4974885;28;19925;-88
2021/08/05 01:10:50;;;;;;;;;;;17.20;97.20;;;17.03;87.72;100056.28;4992536;28;19925;-87
2021/08/05 01:13:21;;;;;;;;;;;17.20;97.30;;;17.05;87.78;100056.03;4992529;28;19954;-87
2021/08/05 01:15:52;;;;;;;;;;;17.30;97.40;;;17.05;87.73;100059.63;4992103;28;19929;-87
2021/08/05 01:18:24;;;;;;;;;;;17.20;97.40;;;17.04;87.78;100057.09;4992156;28;19929;-88
2021/08/05 01:20:51;;;;;;;;;;;17.20;97.40;;;17.04;87.95;100051.59;4974497;28;19968;-88
2021/08/05 01:23:25;;;;;;;;;;;17.20;97.40;;;17.03;87.95;100058.19;4992274;28;19932;-87
2021/08/05 01:25:58;;;;;;;;;;;17.20;97.50;;;17.04;88.06;100052.47;4991664;28;19953;-87
2021/08/05 01:28:26;;;;;;;;;;;17.20;97.50;;;17.03;88.17;100048.03;4974602;28;19928;-87
2021/08/05 01:30:55;;;;;;;;;;;17.30;97.50;;;17.02;88.17;100046.38;4992117;28;19984;-87
2021/08/05 01:33:23;;;;;;;;;;;17.20;97.40;;;17.00;88.22;100043.84;4992003;28;19956;-87
2021/08/05 01:35:52;;;;;;;;;;;17.20;97.60;;;17.00;88.38;100037.50;4991475;28;20397;-87
2021/08/05 01:38:19;;;;;;;;;;;17.20;97.60;;;17.00;88.25;100037.50;4974415;28;20019;-87
2021/08/05 01:40:48;;;;;;;;;;;17.20;97.70;;;16.98;88.10;100031.41;4974393;28;19929;-87
2021/08/05 01:43:15;;;;;;;;;;;17.20;97.60;;;16.99;88.39;100033.09;4974402;28;19961;-87
2021/08/05 01:45:45;;;;;;;;;;;17.20;97.60;;;16.98;88.23;100026.75;4974002;28;20673;-87
2021/08/05 01:48:13;;;;;;;;;;;17.20;97.70;;;16.98;88.38;100018.50;4973568;28;19957;-87
2021/08/05 01:50:42;;;;;;;;;;;17.20;97.80;;;16.99;88.39;100027.59;4972894;28;19925;-87
2021/08/05 01:53:09;;;;;;;;;;;17.20;97.90;;;17.00;88.32;100018.25;4974075;28;19971;-87
2021/08/05 01:55:37;;;;;;;;;;;17.20;97.80;;;16.98;88.42;100014.91;4973966;28;19929;-87
2021/08/05 01:58:06;;;;;;;;;;;17.20;97.80;;;16.97;88.37;100014.06;4973363;28;19929;-87
2021/08/05 02:00:34;;;;;;;;;;;17.20;97.80;;;16.98;88.35;100021.25;4973806;28;19965;-87
2021/08/05 02:03:03;;;;;;;;;;;17.20;97.90;;;16.96;88.56;100025.31;4991547;28;19926;-88
2021/08/05 02:05:34;;;;;;;;;;;17.20;98.00;;;16.95;88.41;100031.91;4973607;28;19934;-88
2021/08/05 02:08:05;;;;;;;;;;;17.20;97.90;;;16.94;88.79;100035.69;4973228;28;19933;-87
2021/08/05 02:10:34;;;;;;;;;;;17.20;98.00;;;16.95;88.77;100026.41;4991361;28;20398;-87
2021/08/05 02:13:04;;;;;;;;;;;17.20;98.00;;;16.98;88.78;100028.66;4973637;28;19925;-88
2021/08/05 02:15:32;;;;;;;;;;;17.20;98.00;;;16.96;88.63;100025.31;5005542;23;20393;-84
2021/08/05 02:17:59;;;;;;;;;;;17.20;98.10;;;16.95;88.82;100015.41;4975209;28;19933;-86
2021/08/05 02:20:28;;;;;;;;;;;17.20;98.10;;;16.95;88.90;100015.41;4973298;28;19925;-86
2021/08/05 02:22:56;;;;;;;;;;;17.20;98.10;;;16.94;88.97;100019.22;4973257;28;19921;-87
2021/08/05 02:25:23;;;;;;;;;;;17.20;98.20;;;16.93;88.88;100010.13;4989107;28;19925;-87
2021/08/05 02:27:51;;;;;;;;;;;17.20;98.20;;;16.94;88.95;100008.22;4990098;28;19933;-87
2021/08/05 02:30:18;;;;;;;;;;;17.20;98.20;;;16.95;89.06;100009.91;4973127;28;19926;-86
2021/08/05 02:32:47;;;;;;;;;;;17.20;98.20;;;16.93;88.93;100012.88;4990781;28;20206;-87
2021/08/05 02:35:15;;;;;;;;;;;17.20;98.20;;;16.92;89.00;100004.88;4973135;28;20024;-87
2021/08/05 02:37:44;;;;;;;;;;;17.10;98.20;;;16.89;89.08;100008.94;4989953;28;20801;-87
2021/08/05 02:40:12;;;;;;;;;;;17.20;98.20;;;16.89;89.08;100005.38;4972955;28;19930;-86
2021/08/05 02:42:40;;;;;;;;;;;17.20;98.20;;;16.90;89.00;100007.03;4973102;28;19925;-86
2021/08/05 02:45:08;;;;;;;;;;;17.20;98.10;;;16.90;89.07;100007.03;4990511;28;20302;-87
2021/08/05 02:47:36;;;;;;;;;;;17.20;98.20;;;16.90;89.00;100002.34;4972124;28;19932;-87
2021/08/05 02:50:05;;;;;;;;;;;17.10;98.30;;;16.90;89.11;100001.53;4990374;28;20008;-86
2021/08/05 02:52:33;;;;;;;;;;;17.20;98.40;;;16.91;89.06;100008.72;4972547;28;19933;-87
2021/08/05 02:55:02;;;;;;;;;;;17.10;98.30;;;16.91;89.28;100009.53;4990230;28;19925;-86
2021/08/05 02:57:30;;;;;;;;;;;17.10;98.50;;;16.90;89.08;100005.09;4971950;28;19933;-86
2021/08/05 02:59:57;;;;;;;;;;;17.10;98.50;;;16.91;89.13;100005.97;4990269;28;19938;-86
2021/08/05 03:02:25;;;;;;;;;;;17.10;98.50;;;16.91;89.17;100005.97;4972310;28;19929;-87
2021/08/05 03:04:52;;;;;;;;;;;17.10;98.50;;;16.87;89.37;100005.59;4990065;28;20370;-87
2021/08/05 03:07:19;;;;;;;;;;;17.10;98.50;;;16.87;89.35;100000.09;4989395;28;19972;-88
2021/08/05 03:09:46;;;;;;;;;;;17.10;98.50;;;16.89;89.52;100010.88;4990187;28;20017;-87
2021/08/05 03:12:14;;;;;;;;;;;17.10;98.60;;;16.88;89.57;100003.69;4990151;28;19965;-86
2021/08/05 03:14:41;;;;;;;;;;;17.10;98.70;;;16.88;89.67;100000.94;4990185;28;19937;-87
2021/08/05 03:17:08;;;;;;;;;;;17.10;98.70;;;16.89;89.70;99995.19;4989212;28;19996;-87
2021/08/05 03:19:37;;;;;;;;;;;17.10;98.80;;;16.89;89.79;99988.88;4990067;28;19933;-84
2021/08/05 03:22:04;;;;;;;;;;;17.10;98.80;;;16.90;89.84;99996.03;4989949;28;19929;-86
2021/08/05 03:24:31;;;;;;;;;;;17.20;98.90;;;16.87;89.96;99993.75;4972353;28;20453;-87
2021/08/05 03:26:58;;;;;;;;;;;17.20;98.90;;;16.87;90.19;99993.75;4989016;28;20465;-86
2021/08/05 03:29:27;;;;;;;;;;;17.20;99.00;;;16.86;89.93;99987.41;4972360;28;20409;-86
2021/08/05 03:31:54;;;;;;;;;;;17.10;98.90;;;16.87;90.21;99980.00;4972260;28;20032;-87
2021/08/05 03:34:21;;;;;;;;;;;17.20;99.00;;;16.87;90.15;99991.84;4989867;28;19929;-87
2021/08/05 03:36:48;;;;;;;;;;;17.20;98.90;;;16.86;90.37;99981.94;4989273;28;20025;-87
2021/08/05 03:39:15;;;;;;;;;;;17.20;98.80;;;16.86;90.14;99979.19;4989917;28;20358;-87
2021/08/05 03:41:42;;;;;;;;;;;17.20;98.80;;;16.86;90.13;99978.34;4989799;28;19996;-87
2021/08/05 03:44:09;;;;;;;;;;;17.10;98.90;;;16.85;90.34;99977.53;4989727;28;19940;-87
2021/08/05 03:46:37;;;;;;;;;;;17.10;98.90;;;16.87;90.28;99974.50;4988933;28;20366;-86
2021/08/05 03:49:04;;;;;;;;;;;17.10;98.90;;;16.85;90.12;99972.03;4989885;28;20396;-87
2021/08/05 03:51:32;;;;;;;;;;;17.10;98.90;;;16.84;90.06;99975.00;4989709;28;19945;-87
2021/08/05 03:53:59;;;;;;;;;;;17.10;99.00;;;16.84;90.29;99975.00;4989744;28;19960;-87
2021/08/05 03:56:26;;;;;;;;;;;17.10;99.00;;;16.83;90.52;99967.81;4988760;28;20313;-86
2021/08/05 03:58:53;;;;;;;;;;;17.10;99.10;;;16.83;90.40;99967.81;4989671;28;19991;-87
2021/08/05 04:01:20;;;;;;;;;;;17.10;99.10;;;16.82;90.60;99964.25;4989454;28;19952;-87
2021/08/05 04:03:48;;;;;;;;;;;17.10;99.10;;;16.83;90.55;99962.31;4989700;28;19926;-87
2021/08/05 04:06:15;;;;;;;;;;;17.10;99.20;;;16.84;90.63;99967.59;4988814;28;19976;-86
2021/08/05 04:08:42;;;;;;;;;;;17.10;99.30;;;16.82;90.49;99969.75;4989815;28;20020;-87
2021/08/05 04:11:10;;;;;;;;;;;17.10;99.20;;;16.81;90.63;99965.28;4989597;28;20390;-86
2021/08/05 04:13:37;;;;;;;;;;;17.10;99.20;;;16.84;90.53;99972.25;4990218;28;20016;-86
2021/08/05 04:16:04;;;;;;;;;;;17.10;99.30;;;16.80;90.59;99975.44;4992511;28;19967;-87
2021/08/05 04:18:31;;;;;;;;;;;17.10;99.30;;;16.81;90.70;99979.00;4993025;28;19964;-86
2021/08/05 04:20:59;;;;;;;;;;;17.10;99.30;;;16.80;90.91;99969.94;4993256;28;20467;-87
2021/08/05 04:23:27;;;;;;;;;;;17.10;99.40;;;16.82;90.78;99967.00;4993208;28;19960;-87
2021/08/05 04:25:54;;;;;;;;;;;17.10;99.40;;;16.80;90.94;99975.44;4992378;28;19921;-87
2021/08/05 04:28:23;;;;;;;;;;;17.10;99.50;;;16.80;90.96;99975.44;4992767;28;19932;-86
2021/08/05 04:30:50;;;;;;;;;;;17.10;99.50;;;16.79;91.06;99973.78;4992877;28;19925;-87
2021/08/05 04:33:17;;;;;;;;;;;17.10;99.50;;;16.81;91.13;99966.13;4992828;28;20530;-87
2021/08/05 04:35:44;;;;;;;;;;;17.10;99.40;;;16.78;91.33;99966.59;4992861;28;19960;-87
2021/08/05 04:38:14;;;;;;;;;;;17.20;99.50;;;16.78;91.15;99963.84;4974627;28;19931;-87
2021/08/05 04:40:42;;;;;;;;;;;17.20;99.50;;;16.80;91.36;99964.44;4992896;28;19934;-87
2021/08/05 04:43:09;;;;;;;;;;;17.20;99.50;;;16.79;91.34;99965.53;4992747;28;19922;-86
2021/08/05 04:45:37;;;;;;;;;;;17.20;99.50;;;16.81;91.47;99965.28;4992551;28;19961;-87
2021/08/05 04:48:06;;;;;;;;;;;17.20;99.40;;;16.81;91.62;99957.03;4992171;28;20008;-86
2021/08/05 04:50:34;;;;;;;;;;;17.20;99.40;;;16.82;91.48;99961.50;4992712;28;20020;-87
2021/08/05 04:53:01;;;;;;;;;;;17.20;99.50;;;16.81;91.61;99957.88;4992753;28;20556;-86
2021/08/05 04:55:30;;;;;;;;;;;17.30;99.40;;;16.83;91.64;99956.81;4992376;28;20433;-87
2021/08/05 04:57:59;;;;;;;;;;;17.30;99.50;;;16.85;91.85;99954.69;4991532;28;19922;-86
2021/08/05 05:00:27;;;;;;;;;;;17.30;99.50;;;16.84;91.91;99947.53;4992385;28;19991;-86
2021/08/05 05:02:54;;;;;;;;;;;17.30;99.30;;;16.84;91.90;99953.84;4992427;28;19949;-87
2021/08/05 05:05:22;;;;;;;;;;;17.30;99.30;;;16.86;92.12;99950.88;4992392;28;19925;-86
2021/08/05 05:07:50;;;;;;;;;;;17.40;99.20;;;16.85;92.51;99939.03;4991665;28;20461;-87
2021/08/05 05:10:18;;;;;;;;;;;17.40;99.10;;;16.87;92.34;99941.53;4992276;28;20020;-87
2021/08/05 05:12:47;;;;;;;;;;;17.50;99.10;;;16.87;92.60;99931.38;4992319;28;20362;-86
2021/08/05 05:15:16;;;;;;;;;;;17.50;99.10;;;16.89;92.71;99939.41;4992131;28;19980;-87
2021/08/05 05:17:45;;;;;;;;;;;17.50;99.20;;;16.91;92.57;99940.00;4991576;28;20454;-87
2021/08/05 05:20:12;;;;;;;;;;;17.50;99.10;;;16.90;92.58;99932.81;4974625;28;19957;-87
2021/08/05 05:22:40;;;;;;;;;;;17.50;99.10;;;16.91;92.64;99931.75;4992075;28;19972;-86
2021/08/05 05:25:09;;;;;;;;;;;17.50;98.90;;;16.93;92.62;99941.41;4974128;28;19932;-87
2021/08/05 05:27:36;;;;;;;;;;;17.60;98.70;;;16.95;92.58;99930.19;4991148;28;19972;-86
2021/08/05 05:30:05;;;;;;;;;;;17.60;98.70;;;16.95;92.87;99932.94;4991925;28;20025;-87
2021/08/05 05:32:32;;;;;;;;;;;17.60;98.90;;;16.95;92.79;99936.50;4991806;28;20035;-87
2021/08/05 05:35:00;;;;;;;;;;;17.60;98.70;;;16.95;92.51;99936.50;4991601;28;19983;-87
2021/08/05 05:37:27;;;;;;;;;;;17.70;98.50;;;16.97;92.56;99941.78;4990981;28;19925;-87
2021/08/05 05:39:55;;;;;;;;;;;17.70;98.30;;;16.97;92.45;99939.03;4991792;28;20374;-87
2021/08/05 05:42:22;;;;;;;;;;;17.80;98.10;;;16.99;92.50;99942.38;4991665;28;20024;-87
2021/08/05 05:44:51;;;;;;;;;;;17.80;98.20;;;16.99;92.87;99942.38;4991705;28;19921;-87
2021/08/05 05:47:19;;;;;;;;;;;17.80;98.40;;;17.00;92.89;99935.78;4990968;28;19944;-87
2021/08/05 05:49:47;;;;;;;;;;;17.90;98.20;;;17.02;93.04;99939.16;4991745;28;19932;-87
2021/08/05 05:52:15;;;;;;;;;;;17.90;98.20;;;17.06;92.81;99944.97;4991598;28;20000;-87
2021/08/05 05:54:42;;;;;;;;;;;18.00;97.70;;;17.07;92.60;99936.50;4991640;28;19926;-87
2021/08/05 05:57:09;;;;;;;;;;;18.00;97.20;;;17.09;92.88;99939.81;4990866;28;20004;-86
2021/08/05 05:59:36;;;;;;;;;;;18.10;97.30;;;17.10;92.79;99937.94;4991565;28;19960;-87
2021/08/05 06:02:04;;;;;;;;;;;18.10;97.20;;;17.13;92.67;99943.75;4991330;28;19925;-87
2021/08/05 06:04:32;;;;;;;;;;;18.20;96.90;;;17.14;93.13;99939.13;4991304;28;19932;-86
2021/08/05 06:06:59;;;;;;;;;;;18.30;96.70;;;17.15;93.18;99944.38;4990338;28;20370;-86
2021/08/05 06:09:26;;;;;;;;;;;18.30;96.50;;;17.18;93.04;99943.06;4991249;28;19925;-87
2021/08/05 06:11:53;;;;;;;;;;;18.40;96.10;;;17.19;93.13;99937.31;4991106;28;20012;-86
2021/08/05 06:14:20;;;;;;;;;;;18.50;95.70;;;17.23;93.01;99942.31;4973580;28;20046;-87
2021/08/05 06:16:47;;;;;;;;;;;18.60;95.30;;;17.25;93.04;99943.75;4972718;28;19969;-87
2021/08/05 06:19:14;;;;;;;;;;;18.80;94.80;;;17.29;93.34;99946.88;4991096;28;19961;-86
2021/08/05 06:21:43;;;;;;;;;;;18.90;94.40;;;17.30;92.83;99946.59;4973347;28;19976;-87
2021/08/05 06:24:12;;;;;;;;;;;18.90;94.00;;;17.33;92.57;99950.78;4991083;28;19930;-86
2021/08/05 06:26:40;;;;;;;;;;;18.90;93.50;;;17.35;92.33;99956.88;4972369;28;20008;-87
2021/08/05 06:29:07;;;;;;;;;;;19.00;93.40;;;17.37;92.25;99951.97;4990536;28;19932;-86
2021/08/05 06:31:35;;;;;;;;;;;18.90;93.40;;;17.39;92.21;99949.81;4990786;28;20414;-87
2021/08/05 06:34:02;;;;;;;;;;;19.00;93.60;;;17.41;92.29;99944.91;4990628;28;20020;-87
2021/08/05 06:36:29;;;;;;;;;;;19.00;93.80;;;17.45;92.27;99953.50;4987857;28;19932;-86
2021/08/05 06:38:58;;;;;;;;;;;19.20;92.50;;;17.46;92.90;99949.66;4990662;28;19990;-87
2021/08/05 06:41:25;;;;;;;;;;;19.50;91.80;;;17.50;92.83;99951.69;4990504;28;19965;-86
2021/08/05 06:43:56;;;;;;;;;;;19.80;90.70;;;17.53;92.25;99951.19;4989195;28;19926;-87
2021/08/05 06:46:23;;;;;;;;;;;19.80;90.40;;;17.61;92.56;99954.63;4988222;28;19929;-86
2021/08/05 06:48:50;;;;;;;;;;;20.00;89.30;;;17.68;93.45;99949.84;4990619;28;19921;-87
2021/08/05 06:51:17;;;;;;;;;;;20.40;88.80;;;17.74;93.28;99946.09;4989118;28;20020;-86
2021/08/05 06:53:44;;;;;;;;;;;20.60;87.90;;;17.83;95.10;99946.53;4990512;28;19960;-87
2021/08/05 06:56:13;;;;;;;;;;;20.90;88.40;;;17.89;93.81;99954.66;4989486;28;19925;-87
2021/08/05 06:58:40;;;;;;;;;;;21.00;86.70;;;18.00;93.58;99952.13;4990391;28;19948;-87
2021/08/05 07:01:07;;;;;;;;;;;21.30;85.50;;;18.11;93.88;99956.72;4990308;28;19953;-86
2021/08/05 07:03:34;;;;;;;;;;;21.40;85.30;;;18.22;93.95;99958.59;4990194;28;19944;-87
2021/08/05 07:06:01;;;;;;;;;;;21.70;84.40;;;18.31;91.95;99950.72;4989318;28;19955;-87
2021/08/05 07:08:28;;;;;;;;;;;21.90;83.20;;;18.42;92.47;99957.25;4988623;28;19961;-87
2021/08/05 07:10:55;;;;;;;;;;;22.00;83.00;;;18.56;92.64;99953.06;4989941;28;19968;-86
2021/08/05 07:13:23;;;;;;;;;;;22.20;82.70;;;18.64;92.20;99952.66;4990128;28;20012;-87
2021/08/05 07:15:50;;;;;;;;;;;22.40;82.10;;;18.69;91.28;99938.09;4996116;28;20012;-87
2021/08/05 07:18:17;;;;;;;;;;;22.40;81.50;;;18.71;90.56;99945.03;4991842;28;19929;-86
2021/08/05 07:20:45;;;;;;;;;;;22.40;81.00;;;18.76;90.10;99952.56;5009569;28;19999;-87
2021/08/05 07:23:12;;;;;;;;;;;22.50;80.90;;;18.83;90.94;99941.38;5009673;28;20381;-87
2021/08/05 07:25:39;;;;;;;;;;;22.50;81.40;;;18.87;90.26;99942.56;5009278;28;19929;-86
2021/08/05 07:28:06;;;;;;;;;;;22.60;80.80;;;18.90;90.16;99942.03;4991258;28;19928;-86
2021/08/05 07:30:35;;;;;;;;;;;22.50;81.10;;;18.96;92.01;99941.00;5009642;28;20012;-87
2021/08/05 07:33:02;;;;;;;;;;;22.60;81.50;;;19.01;92.41;99941.09;5009617;28;20036;-86
2021/08/05 07:35:29;;;;;;;;;;;22.60;81.80;;;19.06;90.54;99938.41;4991676;28;20364;-87
2021/08/05 07:37:56;;;;;;;;;;;22.80;80.70;;;19.09;90.40;99935.13;5008538;28;20421;-87
2021/08/05 07:40:23;;;;;;;;;;;22.70;80.70;;;19.11;88.88;99938.47;5009249;28;20352;-85
2021/08/05 07:42:50;;;;;;;;;;;22.70;80.60;;;19.12;88.46;99940.13;5009630;28;19921;-84
2021/08/05 07:45:17;;;;;;;;;;;22.70;79.70;;;19.14;87.66;99946.22;5009366;28;20383;-84
2021/08/05 07:47:45;;;;;;;;;;;22.70;79.00;;;19.17;87.06;99944.03;5009484;28;19929;-84
2021/08/05 07:50:14;;;;;;;;;;;22.70;78.90;;;19.22;87.61;99949.63;4995659;28;20390;-84
2021/08/05 07:52:41;;;;;;;;;;;22.70;79.50;;;19.26;87.96;99939.75;4995704;28;19925;-84
2021/08/05 07:55:09;;;;;;;;;;;22.70;79.60;;;19.33;87.72;99934.88;5013226;28;20411;-84
2021/08/05 07:57:38;;;;;;;;;;;22.80;79.60;;;19.36;87.29;99939.88;5012694;28;19925;-84
2021/08/05 08:00:07;;;;;;;;;;;22.90;79.20;;;19.42;86.74;99933.34;5013320;28;19975;-84
2021/08/05 08:02:40;;;;;;;;;;;23.00;78.30;;;19.43;85.82;99929.47;5013429;28;19921;-84
2021/08/05 08:05:11;;;;;;;;;;;23.00;78.10;;;19.43;86.08;99931.41;5013075;28;20393;-84
2021/08/05 08:07:38;;;;;;;;;;;23.00;78.10;;;19.47;85.79;99927.88;5012259;28;19931;-84
2021/08/05 08:10:07;;;;;;;;;;;23.00;77.90;;;19.49;84.58;99925.69;5013054;28;19925;-87
2021/08/05 08:12:34;;;;;;;;;;;23.00;77.20;;;19.48;83.73;99921.28;5012957;28;19929;-87
2021/08/05 08:15:01;;;;;;;;;;;23.00;76.90;;;19.49;84.29;99916.56;4995050;28;20067;-87
2021/08/05 08:17:28;;;;;;;;;;;22.90;78.00;;;19.52;85.74;99916.06;5012422;22;20445;-87
2021/08/05 08:19:55;;;;;;;;;;;22.80;78.60;;;19.50;85.47;99916.31;4975743;28;20393;-88
2021/08/05 08:22:24;;;;;;;;;;;22.90;78.70;;;19.53;85.31;99914.97;4993492;28;20028;-88
2021/08/05 08:24:52;;;;;;;;;;;22.80;78.50;;;19.53;85.01;99910.28;4975511;28;19926;-88
2021/08/05 08:27:20;;;;;;;;;;;22.80;78.80;;;19.52;84.23;99905.84;4992346;28;19972;-88
2021/08/05 08:29:47;;;;;;;;;;;22.80;78.10;;;19.54;84.77;99909.19;4992875;28;20313;-87
2021/08/05 08:32:14;;;;;;;;;;;22.80;78.60;;;19.58;86.61;99912.28;4993031;28;19972;-88
2021/08/05 08:34:41;;;;;;;;;;;22.80;79.30;;;19.57;84.38;99909.75;4993075;28;19979;-88
2021/08/05 08:37:08;;;;;;;;;;;22.80;78.70;;;19.58;84.16;99911.44;4974555;28;20636;-87
2021/08/05 08:39:37;;;;;;;;;;;22.80;78.10;;;19.57;84.03;99918.03;4992962;28;20375;-87
2021/08/05 08:42:04;;;;;;;;;;;22.80;77.90;;;19.61;83.99;99913.66;4992822;28;19929;-88
2021/08/05 08:44:31;;;;;;;;;;;22.80;78.10;;;19.68;82.00;99906.03;4975213;28;20040;-87
2021/08/05 08:47:00;;;;;;;;;;;22.90;77.50;;;19.77;83.97;99907.25;4991850;28;19930;-88
2021/08/05 08:49:28;;;;;;;;;;;23.00;77.60;;;19.86;84.56;99902.94;4992765;28;19922;-87
2021/08/05 08:51:56;;;;;;;;;;;23.10;78.20;;;19.90;83.27;99906.84;4992846;28;20041;-87
2021/08/05 08:54:23;;;;;;;;;;;23.10;77.30;;;19.97;85.03;99900.25;4975023;28;19925;-87
2021/08/05 08:56:53;;;;;;;;;;;23.10;78.20;;;19.98;81.99;99897.25;4991814;28;19925;-88
2021/08/05 08:59:21;;;;;;;;;;;23.10;77.00;;;20.01;80.44;99895.88;4992009;28;20012;-88
2021/08/05 09:01:48;;;;;;;;;;;23.00;76.40;;;19.99;80.27;99892.53;4992575;28;19998;-88
2021/08/05 09:04:16;;;;;;;;;;;22.90;77.00;;;19.95;78.42;99899.69;4975071;28;19925;-88
2021/08/05 09:06:48;;;;;;;;;;;22.80;75.40;;;19.94;81.55;99884.22;4991728;28;19995;-88
2021/08/05 09:09:15;;;;;;;;;;;22.70;77.70;;;20.00;80.59;99888.69;4992514;28;19926;-88
2021/08/05 09:11:42;;;;;;;;;;;22.80;77.60;;;20.09;80.37;99887.13;4992252;28;19922;-88
2021/08/05 09:14:12;;;;;;;;;;;22.80;77.60;;;20.14;81.21;99889.91;4992124;28;19957;-87
2021/08/05 09:16:39;;;;;;;;;;;22.80;77.80;;;20.14;78.43;99881.63;4991220;28;20362;-88
2021/08/05 09:19:11;;;;;;;;;;;22.80;76.60;;;20.13;78.15;99888.25;4992189;28;19932;-88
2021/08/05 09:21:38;;;;;;;;;;;22.80;76.00;;;20.20;80.04;99888.88;4992065;28;19929;-87
2021/08/05 09:24:09;;;;;;;;;;;22.80;77.00;;;20.25;78.15;99885.31;4992310;28;19946;-88
2021/08/05 09:26:39;;;;;;;;;;;22.90;77.20;;;20.24;79.26;99884.47;4991085;28;19940;-88
2021/08/05 09:29:13;;;;;;;;;;;22.90;76.70;;;20.29;76.95;99886.44;4992185;28;19960;-88
2021/08/05 09:31:46;;;;;;;;;;;22.90;75.30;;;20.26;77.27;99887.81;4991929;28;19929;-88
2021/08/05 09:34:15;;;;;;;;;;;22.90;75.50;;;20.27;78.58;99886.69;4992010;28;19925;-88
2021/08/05 09:36:43;;;;;;;;;;;22.90;76.50;;;20.25;77.51;99886.13;4991112;28;20362;-87
2021/08/05 09:39:21;;;;;;;;;;;22.90;76.10;;;20.18;75.32;99885.53;4992066;28;19937;-87
2021/08/05 09:42:00;;;;;;;;;;;22.80;74.70;;;20.20;77.89;99872.31;4974194;28;20471;-87
2021/08/05 09:44:41;;;;;;;;;;;22.80;75.50;;;20.25;76.53;99868.72;4991728;28;19926;-87
2021/08/05 09:47:10;;;;;;;;;;;22.90;75.30;;;20.22;74.67;99870.09;4990822;28;19926;-88
2021/08/05 09:49:38;;;;;;;;;;;22.90;73.80;;;20.26;76.86;99876.75;4991513;28;19960;-88
2021/08/05 09:52:09;;;;;;;;;;;23.00;74.90;;;20.24;75.00;99878.97;4991508;28;19925;-87
2021/08/05 09:54:38;;;;;;;;;;;22.90;74.50;;;20.22;77.47;99872.88;4991689;28;19998;-87
2021/08/05 09:57:07;;;;;;;;;;;22.90;75.30;;;20.25;79.00;99880.59;4990692;28;19926;-89
2021/08/05 09:59:51;;;;;;;;;;;22.90;76.30;;;20.24;76.92;99876.19;4991236;28;19925;-88
2021/08/05 10:02:20;;;;;;;;;;;23.00;74.90;;;20.26;77.24;99864.88;4991514;28;19929;-87
2021/08/05 10:04:48;;;;;;;;;;;23.00;75.20;;;20.26;77.57;99865.72;4991389;28;19973;-88
2021/08/05 10:07:16;;;;;;;;;;;23.10;74.70;;;20.36;78.28;99864.13;4973127;28;19933;-88
2021/08/05 10:09:44;;;;;;;;;;;23.20;74.30;;;20.43;77.80;99862.78;4991357;28;19921;-88
2021/08/05 10:12:15;;;;;;;;;;;23.40;74.10;;;20.55;78.53;99868.13;4972591;28;19925;-88
2021/08/05 10:14:44;;;;;;;;;;;23.50;74.80;;;20.61;80.03;99861.53;4991158;28;19929;-88
2021/08/05 10:17:13;;;;;;;;;;;23.50;75.80;;;20.62;81.06;99857.69;4990141;28;19928;-88
2021/08/05 10:19:42;;;;;;;;;;;23.60;76.40;;;20.59;77.17;99855.41;4991049;28;19928;-88
2021/08/05 10:22:11;;;;;;;;;;;23.60;74.80;;;20.53;75.28;99848.19;4990829;28;20394;-88
2021/08/05 10:24:40;;;;;;;;;;;23.50;73.00;;;20.46;74.01;99853.13;4990980;28;20009;-88
2021/08/05 10:27:09;;;;;;;;;;;23.40;72.50;;;20.44;76.40;99855.31;4989640;28;20021;-88
2021/08/05 10:29:37;;;;;;;;;;;23.20;73.40;;;20.39;75.36;99847.00;4990952;28;19991;-88
2021/08/05 10:32:07;;;;;;;;;;;23.10;73.70;;;20.39;75.73;99847.00;4990928;28;19925;-87
2021/08/05 10:34:36;;;;;;;;;;;23.10;74.00;;;20.36;76.38;99853.06;4990875;28;20394;-87
2021/08/05 10:37:04;;;;;;;;;;;23.00;74.60;;;20.41;77.56;99840.13;4989974;28;20020;-88
2021/08/05 10:39:34;;;;;;;;;;;23.10;76.10;;;20.41;75.64;99844.78;4990741;28;19956;-88
2021/08/05 10:42:05;;;;;;;;;;;23.10;74.30;;;20.38;75.20;99839.81;4990689;28;19930;-87
2021/08/05 10:44:32;;;;;;;;;;;23.10;74.00;;;20.39;78.18;99841.47;4990707;28;19972;-88
2021/08/05 10:47:00;;;;;;;;;;;23.10;75.50;;;20.35;76.78;99835.63;4989648;28;19922;-88
2021/08/05 10:49:29;;;;;;;;;;;23.10;73.90;;;20.36;75.23;99847.53;4990534;28;20016;-87
2021/08/05 10:51:56;;;;;;;;;;;23.10;74.00;;;20.40;74.27;99829.31;4990353;28;20012;-88
2021/08/05 10:54:53;;;;;;;;;;;23.10;73.30;;;20.47;75.59;99827.16;4990493;28;19925;-88
2021/08/05 10:57:23;;;;;;;;;;;23.20;74.20;;;20.55;76.56;99821.13;4989597;28;19926;-88
2021/08/05 11:00:08;;;;;;;;;;;23.40;73.80;;;20.66;80.05;99820.09;4990419;28;19930;-88
2021/08/05 11:02:45;;;;;;;;;;;23.50;76.20;;;20.67;72.99;99819.00;4990307;28;19926;-87
2021/08/05 11:05:41;;;;;;;;;;;23.60;72.40;;;20.76;73.08;99824.03;4990335;28;19929;-88
2021/08/05 11:08:26;;;;;;;;;;;23.60;71.60;;;20.75;74.35;99823.16;4989635;28;19980;-88
2021/08/05 11:11:30;;;;;;;;;;;23.60;70.60;;;20.86;72.94;99819.34;4972670;28;19922;-88
2021/08/05 11:14:40;;;;;;;;;;;23.80;71.50;;;20.94;73.86;99817.19;4990405;28;19929;-88
2021/08/05 11:17:08;;;;;;;;;;;23.80;71.70;;;20.84;68.95;99815.19;4960934;28;19922;-88
2021/08/05 11:19:41;;;;;;;;;;;23.70;68.10;;;20.91;68.79;99813.03;4972387;28;19960;-88
2021/08/05 11:22:48;;;;;;;;;;;23.70;67.70;;;20.88;68.56;99814.38;4972455;28;20367;-88